createdAt,value
2024-02-02T00:04:49.065Z,23.40
2024-02-02T00:09:49.310Z,21.40
2024-02-02T00:14:49.142Z,24.50
2024-02-02T00:19:49.216Z,21.80
2024-02-02T00:24:51.382Z,16.70
2024-02-02T00:29:49.007Z,25.10
2024-02-02T00:34:49.234Z,24.20
2024-02-02T00:39:49.239Z,21.50
2024-02-02T00:44:49.046Z,18.00
2024-02-02T00:49:49.089Z,21.10
2024-02-02T00:54:49.142Z,23.30
2024-02-02T00:59:50.436Z,22.40
2024-02-02T01:04:48.967Z,20.30
2024-02-02T01:09:49.400Z,22.40
2024-02-02T01:14:49.057Z,19.80
2024-02-02T01:19:49.765Z,17.20
2024-02-02T01:24:51.194Z,21.40
2024-02-02T01:29:49.061Z,22.60
2024-02-02T01:34:49.120Z,21.70
2024-02-02T01:39:49.107Z,20.20
2024-02-02T01:44:49.918Z,22.40
2024-02-02T01:49:49.002Z,25.60
2024-02-02T01:54:49.208Z,21.90
2024-02-02T01:59:49.348Z,16.40
2024-02-02T02:04:48.904Z,17.40
2024-02-02T02:09:51.003Z,25.20
2024-02-02T02:14:49.023Z,20.40
2024-02-02T02:19:49.526Z,19.90
2024-02-02T02:24:49.082Z,20.10
2024-02-02T02:29:48.953Z,18.70
2024-02-02T02:34:49.046Z,19.20
2024-02-02T02:39:50.909Z,18.50
2024-02-02T02:44:49.061Z,19.50
2024-02-02T02:49:48.967Z,17.20
2024-02-02T02:54:51.001Z,19.70
2024-02-02T02:59:48.907Z,19.20
2024-02-02T03:04:48.878Z,18.10
2024-02-02T03:09:50.525Z,18.00
2024-02-02T03:14:48.947Z,19.20
2024-02-02T03:19:48.839Z,17.70
2024-02-02T03:24:50.950Z,21.90
2024-02-02T03:29:48.922Z,21.90
2024-02-02T03:34:48.949Z,18.40
2024-02-02T03:39:51.379Z,20.60
2024-02-02T03:44:48.789Z,19.20
2024-02-02T03:49:48.931Z,21.20
2024-02-02T03:54:49.325Z,18.80
2024-02-02T03:59:48.888Z,19.10
2024-02-02T04:04:48.842Z,19.40
2024-02-02T04:09:50.970Z,22.10
2024-02-02T04:14:48.845Z,23.20
2024-02-02T04:19:48.843Z,27.50
2024-02-02T04:24:50.508Z,30.60
2024-02-02T04:29:48.722Z,23.30
2024-02-02T04:34:48.986Z,30.30
2024-02-02T04:39:49.086Z,25.30
2024-02-02T04:44:48.766Z,25.10
2024-02-02T04:49:49.484Z,21.90
2024-02-02T04:54:53.723Z,31.40
2024-02-02T04:59:48.766Z,25.00
2024-02-02T05:04:48.745Z,26.10
2024-02-02T05:09:49.172Z,21.70
2024-02-02T05:14:49.283Z,33.60
2024-02-02T05:19:49.921Z,22.40
2024-02-02T05:24:49.619Z,23.30
2024-02-02T05:29:49.115Z,27.10
2024-02-02T05:34:48.845Z,21.60
2024-02-02T05:39:49.066Z,23.70
2024-02-02T05:44:48.661Z,24.90
2024-02-02T05:49:49.609Z,27.20
2024-02-02T05:54:48.939Z,26.20
2024-02-02T05:59:49.324Z,24.20
2024-02-02T06:04:48.967Z,27.40
2024-02-02T06:09:49.003Z,22.20
2024-02-02T06:14:48.619Z,29.50
2024-02-02T06:19:48.792Z,28.90
2024-02-02T06:24:48.988Z,25.70
2024-02-02T06:29:49.205Z,24.80
2024-02-02T06:34:51.794Z,36.90
2024-02-02T06:39:48.992Z,26.70
2024-02-02T06:44:50.823Z,32.50
2024-02-02T06:49:49.072Z,39.50
2024-02-02T06:54:50.649Z,27.40
2024-02-02T06:59:49.613Z,26.20
2024-02-02T07:04:49.160Z,29.50
2024-02-02T07:09:51.529Z,19.90
2024-02-02T07:14:50.323Z,26.40
2024-02-02T07:19:49.303Z,21.90
2024-02-02T07:24:49.006Z,23.40
2024-02-02T07:29:49.279Z,22.10
2024-02-02T07:34:50.674Z,26.10
2024-02-02T07:39:49.095Z,26.60
2024-02-02T07:44:48.581Z,22.10
2024-02-02T07:49:48.735Z,27.90
2024-02-02T07:54:48.827Z,36.70
2024-02-02T07:59:48.534Z,26.00
2024-02-02T08:04:48.710Z,21.40
2024-02-02T08:09:48.797Z,19.20
2024-02-02T08:14:48.517Z,20.10
2024-02-02T08:19:48.900Z,20.70
2024-02-02T08:24:50.375Z,20.20
2024-02-02T08:29:48.766Z,18.20
2024-02-02T08:34:48.567Z,19.00
2024-02-02T08:39:53.018Z,17.50
2024-02-02T08:44:49.170Z,18.80
2024-02-02T08:49:53.674Z,17.50
2024-02-02T08:54:49.266Z,19.30
2024-02-02T08:59:52.700Z,21.70
2024-02-02T09:05:01.447Z,19.60
2024-02-02T09:09:48.588Z,28.30
2024-02-02T09:14:48.568Z,32.00
2024-02-02T09:19:53.362Z,29.00
2024-02-02T09:24:49.872Z,27.20
2024-02-02T09:29:49.312Z,21.30
2024-02-02T09:34:49.059Z,24.40
2024-02-02T09:39:51.317Z,25.30
2024-02-02T09:44:53.166Z,24.30
2024-02-02T09:49:57.233Z,20.30
2024-02-02T09:54:58.385Z,21.70
2024-02-02T10:00:01.574Z,44.80
2024-02-02T10:05:00.256Z,70.80
2024-02-02T10:10:01.500Z,91.10
2024-02-02T10:15:04.461Z,52.10
2024-02-02T10:20:01.479Z,40.90
2024-02-02T10:25:00.396Z,26.80
2024-02-02T10:30:05.727Z,33.10
2024-02-02T10:34:57.210Z,33.60
2024-02-02T10:40:00.530Z,23.60
2024-02-02T10:45:03.309Z,35.50
2024-02-02T10:49:57.272Z,36.80
2024-02-02T10:55:00.957Z,31.30
2024-02-02T11:00:02.648Z,28.30
2024-02-02T11:04:59.726Z,27.90
2024-02-02T11:09:56.050Z,29.50
2024-02-02T11:15:02.099Z,33.70
2024-02-02T11:20:01.445Z,34.80
2024-02-02T11:24:57.385Z,24.90
2024-02-02T11:29:56.977Z,25.30
2024-02-02T11:34:54.887Z,25.80
2024-02-02T11:39:56.732Z,51.10
2024-02-02T11:44:49.764Z,44.10
2024-02-02T11:49:56.183Z,29.20
2024-02-02T11:54:55.861Z,48.80
2024-02-02T11:59:54.347Z,34.20
2024-02-02T12:04:55.132Z,26.50
2024-02-02T12:09:51.344Z,31.70
2024-02-02T12:14:51.019Z,25.50
2024-02-02T12:19:49.299Z,26.90
2024-02-02T12:24:48.808Z,26.90
2024-02-02T12:29:48.466Z,28.50
2024-02-02T12:34:50.442Z,28.00
2024-02-02T12:39:52.320Z,26.80
2024-02-02T12:44:49.578Z,24.70
2024-02-02T12:49:48.730Z,30.70
2024-02-02T12:54:51.425Z,25.70
2024-02-02T12:59:48.493Z,25.30
2024-02-02T13:04:51.703Z,34.50
2024-02-02T13:09:50.448Z,22.20
2024-02-02T13:14:48.427Z,24.80
2024-02-02T13:19:57.858Z,22.20
2024-02-02T13:24:50.647Z,29.70
2024-02-02T13:29:51.629Z,32.00
2024-02-02T13:34:49.101Z,34.00
2024-02-02T13:39:50.230Z,26.20
2024-02-02T13:44:48.406Z,23.00
2024-02-02T13:49:55.477Z,30.00
2024-02-02T13:54:53.522Z,22.40
2024-02-02T13:59:49.132Z,28.00
2024-02-02T14:04:48.739Z,27.60
2024-02-02T14:09:50.221Z,31.80
2024-02-02T14:14:48.659Z,25.30
2024-02-02T14:20:00.151Z,28.60
2024-02-02T14:24:51.337Z,29.20
2024-02-02T14:29:49.038Z,28.60
2024-02-02T14:34:48.701Z,25.80
2024-02-02T14:39:50.457Z,30.10
2024-02-02T14:44:48.454Z,25.90
2024-02-02T14:49:48.702Z,28.20
2024-02-02T14:54:48.770Z,27.10
2024-02-02T14:59:51.690Z,28.90
2024-02-02T15:04:52.073Z,27.30
2024-02-02T15:09:49.955Z,23.80
2024-02-02T15:14:48.460Z,31.90
2024-02-02T15:19:48.429Z,25.30
2024-02-02T15:24:48.349Z,30.30
2024-02-02T15:29:48.281Z,33.60
2024-02-02T15:34:50.427Z,58.20
2024-02-02T15:39:56.259Z,34.70
2024-02-02T15:44:48.419Z,27.60
2024-02-02T15:49:50.609Z,28.20
2024-02-02T15:54:48.456Z,31.10
2024-02-02T15:59:48.266Z,32.40
2024-02-02T16:04:54.638Z,24.80
2024-02-02T16:09:48.295Z,30.50
2024-02-02T16:14:48.294Z,24.00
2024-02-02T16:19:48.638Z,26.90
2024-02-02T16:24:48.504Z,29.20
2024-02-02T16:29:48.254Z,27.70
2024-02-02T16:34:48.693Z,37.90
2024-02-02T16:39:48.298Z,30.80
2024-02-02T16:44:50.528Z,28.70
2024-02-02T16:49:49.973Z,29.00
2024-02-02T16:54:48.357Z,30.90
2024-02-02T16:59:48.580Z,30.90
2024-02-02T17:04:48.453Z,32.30
2024-02-02T17:09:48.359Z,29.90
2024-02-02T17:14:48.471Z,29.80
2024-02-02T17:19:50.776Z,26.10
2024-02-02T17:24:48.472Z,30.90
2024-02-02T17:29:48.297Z,24.80
2024-02-02T17:34:49.009Z,27.20
2024-02-02T17:39:49.659Z,25.50
2024-02-02T17:44:48.319Z,21.50
2024-02-02T17:49:51.812Z,24.90
2024-02-02T17:54:48.220Z,27.60
2024-02-02T17:59:48.235Z,27.10
2024-02-02T18:04:49.655Z,24.60
2024-02-02T18:09:48.325Z,26.70
2024-02-02T18:14:48.146Z,26.20
2024-02-02T18:19:48.330Z,30.20
2024-02-02T18:24:48.428Z,27.80
2024-02-02T18:29:52.012Z,26.40
2024-02-02T18:34:48.698Z,27.00
2024-02-02T18:39:48.276Z,26.80
2024-02-02T18:44:48.104Z,23.90
2024-02-02T18:49:48.469Z,30.20
2024-02-02T18:54:48.135Z,29.50
2024-02-02T18:59:48.136Z,28.30
2024-02-02T19:04:48.529Z,29.10
2024-02-02T19:09:48.162Z,30.00
2024-02-02T19:14:48.155Z,24.40
2024-02-02T19:19:49.198Z,26.20
2024-02-02T19:24:48.173Z,25.40
2024-02-02T19:29:48.106Z,26.10
2024-02-02T19:34:48.634Z,30.80
2024-02-02T19:39:48.189Z,41.70
2024-02-02T19:44:48.351Z,29.30
2024-02-02T19:49:48.271Z,25.80
2024-02-02T19:54:48.229Z,28.40
2024-02-02T19:59:48.014Z,33.60
2024-02-02T20:04:49.956Z,28.80
2024-02-02T20:09:48.647Z,31.80
2024-02-02T20:14:48.107Z,30.30
2024-02-02T20:19:48.508Z,30.80
2024-02-02T20:24:48.329Z,28.90
2024-02-02T20:29:48.150Z,34.50
2024-02-02T20:34:48.197Z,36.90
2024-02-02T20:39:48.439Z,32.40
2024-02-02T20:44:49.252Z,30.50
2024-02-02T20:49:48.074Z,33.70
2024-02-02T20:54:48.579Z,26.60
2024-02-02T20:59:48.363Z,30.70
2024-02-02T21:04:48.138Z,30.10
2024-02-02T21:09:49.041Z,33.90
2024-02-02T21:14:47.976Z,27.50
2024-02-02T21:19:50.252Z,31.60
2024-02-02T21:24:48.334Z,31.40
2024-02-02T21:29:48.221Z,27.90
2024-02-02T21:34:48.023Z,32.90
2024-02-02T21:39:50.154Z,31.70
2024-02-02T21:44:48.122Z,32.10
2024-02-02T21:49:48.151Z,24.90
2024-02-02T21:54:49.763Z,26.90
2024-02-02T21:59:49.994Z,26.10
2024-02-02T22:04:52.815Z,22.50
2024-02-02T22:09:48.464Z,24.30
2024-02-02T22:14:48.175Z,22.80
2024-02-02T22:19:48.201Z,24.40
2024-02-02T22:24:50.215Z,28.00
2024-02-02T22:29:48.045Z,23.50
2024-02-02T22:34:48.443Z,26.80
2024-02-02T22:39:48.496Z,28.40
2024-02-02T22:44:48.176Z,23.20
2024-02-02T22:49:48.119Z,29.90
2024-02-02T22:54:48.248Z,28.00
2024-02-02T22:59:53.573Z,26.00
2024-02-02T23:04:48.030Z,26.30
2024-02-02T23:09:50.510Z,32.40
2024-02-02T23:14:47.947Z,27.90
2024-02-02T23:19:48.154Z,26.50
2024-02-02T23:24:48.159Z,28.90
2024-02-02T23:29:47.976Z,24.90
2024-02-02T23:34:47.914Z,22.50
2024-02-02T23:39:49.863Z,30.90
2024-02-02T23:44:48.050Z,27.80
2024-02-02T23:49:48.016Z,26.10
2024-02-02T23:54:49.827Z,28.70
2024-02-02T23:59:47.871Z,30.00
